sensor_id;sensor_type;location;lat;lon;timestamp;P1;durP1;ratioP1;P2;durP2;ratioP2
42964;SDS011;28604;51.204;22.552;2023-03-16T00:02:22;24.30;;;11.50;;
42964;SDS011;28604;51.204;22.552;2023-03-16T00:04:48;20.52;;;9.75;;
42964;SDS011;28604;51.204;22.552;2023-03-16T00:07:15;23.73;;;10.30;;
42964;SDS011;28604;51.204;22.552;2023-03-16T00:09:41;24.67;;;11.18;;
42964;SDS011;28604;51.204;22.552;2023-03-16T00:12:10;24.48;;;11.50;;
42964;SDS011;28604;51.204;22.552;2023-03-16T00:14:44;27.08;;;10.90;;
42964;SDS011;28604;51.204;22.552;2023-03-16T00:17:12;26.88;;;10.55;;
42964;SDS011;28604;51.204;22.552;2023-03-16T00:19:47;26.00;;;9.95;;
42964;SDS011;28604;51.204;22.552;2023-03-16T00:22:19;25.30;;;9.77;;
42964;SDS011;28604;51.204;22.552;2023-03-16T00:24:50;22.13;;;10.18;;
42964;SDS011;28604;51.204;22.552;2023-03-16T00:27:17;21.75;;;10.73;;
42964;SDS011;28604;51.204;22.552;2023-03-16T00:29:44;24.83;;;10.68;;
42964;SDS011;28604;51.204;22.552;2023-03-16T00:32:13;23.25;;;10.60;;
42964;SDS011;28604;51.204;22.552;2023-03-16T00:34:39;24.08;;;11.07;;
42964;SDS011;28604;51.204;22.552;2023-03-16T00:37:05;20.95;;;10.93;;
42964;SDS011;28604;51.204;22.552;2023-03-16T00:39:31;29.63;;;12.68;;
42964;SDS011;28604;51.204;22.552;2023-03-16T00:42:00;21.20;;;10.45;;
42964;SDS011;28604;51.204;22.552;2023-03-16T00:44:27;23.80;;;10.30;;
42964;SDS011;28604;51.204;22.552;2023-03-16T00:46:53;21.15;;;10.38;;
42964;SDS011;28604;51.204;22.552;2023-03-16T00:49:19;25.80;;;10.73;;
42964;SDS011;28604;51.204;22.552;2023-03-16T00:51:46;21.95;;;10.45;;
42964;SDS011;28604;51.204;22.552;2023-03-16T00:54:12;22.85;;;11.10;;
42964;SDS011;28604;51.204;22.552;2023-03-16T00:56:38;25.33;;;10.48;;
42964;SDS011;28604;51.204;22.552;2023-03-16T00:59:04;28.55;;;10.77;;
42964;SDS011;28604;51.204;22.552;2023-03-16T01:01:30;21.88;;;10.60;;
42964;SDS011;28604;51.204;22.552;2023-03-16T01:03:59;24.20;;;11.50;;
42964;SDS011;28604;51.204;22.552;2023-03-16T01:06:26;24.27;;;10.32;;
42964;SDS011;28604;51.204;22.552;2023-03-16T01:08:52;24.23;;;11.70;;
42964;SDS011;28604;51.204;22.552;2023-03-16T01:11:19;29.55;;;10.88;;
42964;SDS011;28604;51.204;22.552;2023-03-16T01:13:48;29.20;;;11.55;;
42964;SDS011;28604;51.204;22.552;2023-03-16T01:16:18;24.40;;;10.68;;
42964;SDS011;28604;51.204;22.552;2023-03-16T01:18:44;26.98;;;11.73;;
42964;SDS011;28604;51.204;22.552;2023-03-16T01:21:11;26.58;;;12.48;;
42964;SDS011;28604;51.204;22.552;2023-03-16T01:23:38;27.73;;;12.55;;
42964;SDS011;28604;51.204;22.552;2023-03-16T01:26:04;24.77;;;10.95;;
42964;SDS011;28604;51.204;22.552;2023-03-16T01:28:31;31.65;;;12.07;;
42964;SDS011;28604;51.204;22.552;2023-03-16T01:31:08;30.08;;;12.88;;
42964;SDS011;28604;51.204;22.552;2023-03-16T01:33:36;31.13;;;12.93;;
42964;SDS011;28604;51.204;22.552;2023-03-16T01:36:09;24.10;;;12.27;;
42964;SDS011;28604;51.204;22.552;2023-03-16T01:39:06;28.25;;;12.55;;
42964;SDS011;28604;51.204;22.552;2023-03-16T01:41:36;26.98;;;13.02;;
42964;SDS011;28604;51.204;22.552;2023-03-16T01:44:03;31.27;;;12.13;;
42964;SDS011;28604;51.204;22.552;2023-03-16T01:46:30;28.83;;;12.40;;
42964;SDS011;28604;51.204;22.552;2023-03-16T01:49:01;25.63;;;12.68;;
42964;SDS011;28604;51.204;22.552;2023-03-16T01:56:57;30.50;;;13.60;;
42964;SDS011;28604;51.204;22.552;2023-03-16T01:59:31;37.17;;;14.40;;
42964;SDS011;28604;51.204;22.552;2023-03-16T02:02:21;36.03;;;12.77;;
42964;SDS011;28604;51.204;22.552;2023-03-16T02:04:53;28.70;;;13.20;;
42964;SDS011;28604;51.204;22.552;2023-03-16T02:07:34;31.48;;;13.55;;
42964;SDS011;28604;51.204;22.552;2023-03-16T02:10:07;28.92;;;13.35;;
42964;SDS011;28604;51.204;22.552;2023-03-16T02:12:35;36.63;;;14.20;;
42964;SDS011;28604;51.204;22.552;2023-03-16T02:15:02;29.15;;;14.25;;
42964;SDS011;28604;51.204;22.552;2023-03-16T02:17:29;34.05;;;14.63;;
42964;SDS011;28604;51.204;22.552;2023-03-16T02:22:44;34.03;;;14.45;;
42964;SDS011;28604;51.204;22.552;2023-03-16T02:25:13;30.13;;;13.70;;
42964;SDS011;28604;51.204;22.552;2023-03-16T02:30:40;36.45;;;14.13;;
42964;SDS011;28604;51.204;22.552;2023-03-16T02:33:06;28.00;;;13.95;;
42964;SDS011;28604;51.204;22.552;2023-03-16T02:35:32;29.33;;;14.93;;
42964;SDS011;28604;51.204;22.552;2023-03-16T02:37:59;32.25;;;14.25;;
42964;SDS011;28604;51.204;22.552;2023-03-16T02:40:31;37.15;;;13.60;;
42964;SDS011;28604;51.204;22.552;2023-03-16T02:43:08;37.80;;;15.32;;
42964;SDS011;28604;51.204;22.552;2023-03-16T02:48:19;29.10;;;14.23;;
42964;SDS011;28604;51.204;22.552;2023-03-16T02:50:59;28.48;;;13.70;;
42964;SDS011;28604;51.204;22.552;2023-03-16T02:53:26;33.92;;;14.25;;
42964;SDS011;28604;51.204;22.552;2023-03-16T02:55:54;30.23;;;14.02;;
42964;SDS011;28604;51.204;22.552;2023-03-16T02:58:20;28.52;;;13.95;;
42964;SDS011;28604;51.204;22.552;2023-03-16T03:00:46;31.73;;;14.45;;
42964;SDS011;28604;51.204;22.552;2023-03-16T03:03:15;28.00;;;13.23;;
42964;SDS011;28604;51.204;22.552;2023-03-16T03:05:41;34.67;;;15.52;;
42964;SDS011;28604;51.204;22.552;2023-03-16T03:08:06;32.25;;;14.80;;
42964;SDS011;28604;51.204;22.552;2023-03-16T03:10:33;27.73;;;15.02;;
42964;SDS011;28604;51.204;22.552;2023-03-16T03:12:59;31.83;;;14.65;;
42964;SDS011;28604;51.204;22.552;2023-03-16T03:15:25;28.58;;;13.85;;
42964;SDS011;28604;51.204;22.552;2023-03-16T03:18:00;29.48;;;14.50;;
42964;SDS011;28604;51.204;22.552;2023-03-16T03:20:28;31.30;;;14.40;;
42964;SDS011;28604;51.204;22.552;2023-03-16T03:22:55;35.40;;;14.27;;
42964;SDS011;28604;51.204;22.552;2023-03-16T03:25:21;31.23;;;14.25;;
42964;SDS011;28604;51.204;22.552;2023-03-16T03:27:48;29.85;;;15.15;;
42964;SDS011;28604;51.204;22.552;2023-03-16T03:30:19;31.08;;;15.75;;
42964;SDS011;28604;51.204;22.552;2023-03-16T03:32:47;33.20;;;15.82;;
42964;SDS011;28604;51.204;22.552;2023-03-16T03:35:14;30.02;;;14.60;;
42964;SDS011;28604;51.204;22.552;2023-03-16T03:37:40;30.02;;;14.73;;
42964;SDS011;28604;51.204;22.552;2023-03-16T03:40:10;35.45;;;16.02;;
42964;SDS011;28604;51.204;22.552;2023-03-16T03:42:39;34.38;;;15.45;;
42964;SDS011;28604;51.204;22.552;2023-03-16T03:45:06;32.30;;;15.35;;
42964;SDS011;28604;51.204;22.552;2023-03-16T03:47:34;31.77;;;15.07;;
42964;SDS011;28604;51.204;22.552;2023-03-16T03:50:02;31.55;;;14.77;;
42964;SDS011;28604;51.204;22.552;2023-03-16T03:52:30;42.13;;;16.25;;
42964;SDS011;28604;51.204;22.552;2023-03-16T03:54:56;38.38;;;16.83;;
42964;SDS011;28604;51.204;22.552;2023-03-16T03:57:24;35.15;;;15.68;;
42964;SDS011;28604;51.204;22.552;2023-03-16T03:59:50;36.10;;;16.23;;
42964;SDS011;28604;51.204;22.552;2023-03-16T04:02:38;31.80;;;15.77;;
42964;SDS011;28604;51.204;22.552;2023-03-16T04:05:09;32.78;;;15.93;;
42964;SDS011;28604;51.204;22.552;2023-03-16T04:07:35;33.33;;;14.70;;
42964;SDS011;28604;51.204;22.552;2023-03-16T04:10:05;35.85;;;15.68;;
42964;SDS011;28604;51.204;22.552;2023-03-16T04:12:36;30.15;;;14.07;;
42964;SDS011;28604;51.204;22.552;2023-03-16T04:15:04;31.83;;;14.80;;
42964;SDS011;28604;51.204;22.552;2023-03-16T04:20:08;29.70;;;14.43;;
42964;SDS011;28604;51.204;22.552;2023-03-16T04:22:40;32.28;;;14.75;;
42964;SDS011;28604;51.204;22.552;2023-03-16T04:25:11;36.70;;;15.38;;
42964;SDS011;28604;51.204;22.552;2023-03-16T04:27:39;36.13;;;16.13;;
42964;SDS011;28604;51.204;22.552;2023-03-16T04:30:11;31.88;;;15.23;;
42964;SDS011;28604;51.204;22.552;2023-03-16T04:32:42;40.70;;;16.30;;
42964;SDS011;28604;51.204;22.552;2023-03-16T04:35:10;40.63;;;15.88;;
42964;SDS011;28604;51.204;22.552;2023-03-16T04:37:45;37.80;;;15.77;;
42964;SDS011;28604;51.204;22.552;2023-03-16T04:40:11;40.65;;;16.98;;
42964;SDS011;28604;51.204;22.552;2023-03-16T04:42:43;42.42;;;16.15;;
42964;SDS011;28604;51.204;22.552;2023-03-16T04:45:14;39.53;;;15.60;;
42964;SDS011;28604;51.204;22.552;2023-03-16T04:47:42;36.53;;;17.20;;
42964;SDS011;28604;51.204;22.552;2023-03-16T04:50:09;37.15;;;15.75;;
42964;SDS011;28604;51.204;22.552;2023-03-16T04:52:37;33.83;;;16.55;;
42964;SDS011;28604;51.204;22.552;2023-03-16T04:55:03;34.22;;;16.48;;
42964;SDS011;28604;51.204;22.552;2023-03-16T04:57:31;33.38;;;16.60;;
42964;SDS011;28604;51.204;22.552;2023-03-16T04:59:58;37.65;;;17.48;;
42964;SDS011;28604;51.204;22.552;2023-03-16T05:02:35;41.72;;;17.90;;
42964;SDS011;28604;51.204;22.552;2023-03-16T05:05:02;38.95;;;17.60;;
42964;SDS011;28604;51.204;22.552;2023-03-16T05:07:29;41.95;;;17.15;;
42964;SDS011;28604;51.204;22.552;2023-03-16T05:09:56;38.33;;;17.75;;
42964;SDS011;28604;51.204;22.552;2023-03-16T05:12:22;36.38;;;17.55;;
42964;SDS011;28604;51.204;22.552;2023-03-16T05:14:53;38.38;;;18.73;;
42964;SDS011;28604;51.204;22.552;2023-03-16T05:17:40;36.40;;;16.20;;
42964;SDS011;28604;51.204;22.552;2023-03-16T05:20:11;37.72;;;17.58;;
42964;SDS011;28604;51.204;22.552;2023-03-16T05:22:41;35.03;;;17.65;;
42964;SDS011;28604;51.204;22.552;2023-03-16T05:25:14;34.63;;;16.73;;
42964;SDS011;28604;51.204;22.552;2023-03-16T05:27:45;39.80;;;18.20;;
42964;SDS011;28604;51.204;22.552;2023-03-16T05:30:19;43.28;;;18.08;;
42964;SDS011;28604;51.204;22.552;2023-03-16T05:32:46;44.05;;;16.90;;
42964;SDS011;28604;51.204;22.552;2023-03-16T05:35:12;36.88;;;17.75;;
42964;SDS011;28604;51.204;22.552;2023-03-16T05:37:39;38.78;;;17.08;;
42964;SDS011;28604;51.204;22.552;2023-03-16T05:40:12;32.67;;;15.68;;
42964;SDS011;28604;51.204;22.552;2023-03-16T05:42:47;31.10;;;16.98;;
42964;SDS011;28604;51.204;22.552;2023-03-16T05:47:56;35.13;;;16.23;;
42964;SDS011;28604;51.204;22.552;2023-03-16T05:50:22;33.65;;;15.02;;
42964;SDS011;28604;51.204;22.552;2023-03-16T05:52:48;32.72;;;15.95;;
42964;SDS011;28604;51.204;22.552;2023-03-16T05:55:19;30.33;;;15.05;;
42964;SDS011;28604;51.204;22.552;2023-03-16T05:57:51;33.50;;;14.53;;
42964;SDS011;28604;51.204;22.552;2023-03-16T06:00:17;31.13;;;15.68;;
42964;SDS011;28604;51.204;22.552;2023-03-16T06:02:52;32.22;;;16.25;;
42964;SDS011;28604;51.204;22.552;2023-03-16T06:05:20;31.92;;;13.32;;
42964;SDS011;28604;51.204;22.552;2023-03-16T06:07:46;30.60;;;15.18;;
42964;SDS011;28604;51.204;22.552;2023-03-16T06:10:13;29.60;;;14.40;;
42964;SDS011;28604;51.204;22.552;2023-03-16T06:12:40;28.98;;;13.38;;
42964;SDS011;28604;51.204;22.552;2023-03-16T06:15:07;35.50;;;14.27;;
42964;SDS011;28604;51.204;22.552;2023-03-16T06:17:34;32.55;;;13.88;;
42964;SDS011;28604;51.204;22.552;2023-03-16T06:20:02;31.02;;;13.50;;
42964;SDS011;28604;51.204;22.552;2023-03-16T06:22:34;25.50;;;12.60;;
42964;SDS011;28604;51.204;22.552;2023-03-16T06:25:01;33.95;;;13.80;;
42964;SDS011;28604;51.204;22.552;2023-03-16T06:27:27;31.90;;;14.32;;
42964;SDS011;28604;51.204;22.552;2023-03-16T06:30:05;29.92;;;12.88;;
42964;SDS011;28604;51.204;22.552;2023-03-16T06:32:33;28.25;;;14.05;;
42964;SDS011;28604;51.204;22.552;2023-03-16T06:35:00;25.70;;;12.95;;
42964;SDS011;28604;51.204;22.552;2023-03-16T06:37:28;28.63;;;12.40;;
42964;SDS011;28604;51.204;22.552;2023-03-16T06:39:57;22.90;;;11.32;;
42964;SDS011;28604;51.204;22.552;2023-03-16T06:42:23;27.08;;;12.07;;
42964;SDS011;28604;51.204;22.552;2023-03-16T06:44:49;23.92;;;11.00;;
42964;SDS011;28604;51.204;22.552;2023-03-16T06:47:17;23.60;;;11.52;;
42964;SDS011;28604;51.204;22.552;2023-03-16T06:49:43;20.17;;;10.93;;
42964;SDS011;28604;51.204;22.552;2023-03-16T06:52:16;20.88;;;10.43;;
42964;SDS011;28604;51.204;22.552;2023-03-16T06:54:42;24.95;;;10.80;;
42964;SDS011;28604;51.204;22.552;2023-03-16T06:57:08;28.27;;;12.25;;
42964;SDS011;28604;51.204;22.552;2023-03-16T06:59:34;28.05;;;10.75;;
42964;SDS011;28604;51.204;22.552;2023-03-16T07:02:00;22.55;;;10.90;;
42964;SDS011;28604;51.204;22.552;2023-03-16T07:04:45;23.35;;;10.82;;
42964;SDS011;28604;51.204;22.552;2023-03-16T07:07:12;20.90;;;10.90;;
42964;SDS011;28604;51.204;22.552;2023-03-16T07:09:56;22.67;;;9.98;;
42964;SDS011;28604;51.204;22.552;2023-03-16T07:12:23;22.15;;;10.63;;
42964;SDS011;28604;51.204;22.552;2023-03-16T07:14:49;18.75;;;9.40;;
42964;SDS011;28604;51.204;22.552;2023-03-16T07:17:19;21.70;;;9.88;;
42964;SDS011;28604;51.204;22.552;2023-03-16T07:19:46;21.23;;;9.63;;
42964;SDS011;28604;51.204;22.552;2023-03-16T07:22:15;25.10;;;10.10;;
42964;SDS011;28604;51.204;22.552;2023-03-16T07:24:41;23.55;;;10.13;;
42964;SDS011;28604;51.204;22.552;2023-03-16T07:27:10;29.15;;;10.80;;
42964;SDS011;28604;51.204;22.552;2023-03-16T07:29:37;18.98;;;8.55;;
42964;SDS011;28604;51.204;22.552;2023-03-16T07:32:03;19.55;;;7.85;;
42964;SDS011;28604;51.204;22.552;2023-03-16T07:34:35;18.60;;;8.10;;
42964;SDS011;28604;51.204;22.552;2023-03-16T07:37:01;19.48;;;7.78;;
42964;SDS011;28604;51.204;22.552;2023-03-16T07:39:30;20.40;;;8.13;;
42964;SDS011;28604;51.204;22.552;2023-03-16T07:42:04;18.13;;;8.20;;
42964;SDS011;28604;51.204;22.552;2023-03-16T07:44:50;12.13;;;7.40;;
42964;SDS011;28604;51.204;22.552;2023-03-16T07:47:18;18.95;;;7.88;;
42964;SDS011;28604;51.204;22.552;2023-03-16T07:49:44;12.70;;;7.43;;
42964;SDS011;28604;51.204;22.552;2023-03-16T07:52:11;20.10;;;7.28;;
42964;SDS011;28604;51.204;22.552;2023-03-16T07:54:39;20.25;;;7.20;;
42964;SDS011;28604;51.204;22.552;2023-03-16T07:57:06;16.10;;;6.93;;
42964;SDS011;28604;51.204;22.552;2023-03-16T07:59:41;13.80;;;6.20;;
42964;SDS011;28604;51.204;22.552;2023-03-16T08:02:14;11.73;;;5.20;;
42964;SDS011;28604;51.204;22.552;2023-03-16T08:04:42;12.25;;;5.10;;
42964;SDS011;28604;51.204;22.552;2023-03-16T08:07:10;12.23;;;5.00;;
42964;SDS011;28604;51.204;22.552;2023-03-16T08:09:54;11.55;;;5.35;;
42964;SDS011;28604;51.204;22.552;2023-03-16T08:12:27;10.48;;;5.70;;
42964;SDS011;28604;51.204;22.552;2023-03-16T08:14:54;12.55;;;7.18;;
42964;SDS011;28604;51.204;22.552;2023-03-16T08:17:26;18.67;;;8.52;;
42964;SDS011;28604;51.204;22.552;2023-03-16T08:19:54;16.40;;;6.55;;
42964;SDS011;28604;51.204;22.552;2023-03-16T08:22:22;15.02;;;4.60;;
42964;SDS011;28604;51.204;22.552;2023-03-16T08:24:48;8.73;;;3.78;;
42964;SDS011;28604;51.204;22.552;2023-03-16T08:27:16;11.98;;;3.40;;
42964;SDS011;28604;51.204;22.552;2023-03-16T08:29:50;13.98;;;5.70;;
42964;SDS011;28604;51.204;22.552;2023-03-16T08:32:18;9.18;;;3.47;;
42964;SDS011;28604;51.204;22.552;2023-03-16T08:34:45;10.43;;;3.83;;
42964;SDS011;28604;51.204;22.552;2023-03-16T08:37:13;7.95;;;2.97;;
42964;SDS011;28604;51.204;22.552;2023-03-16T08:39:40;8.35;;;3.60;;
42964;SDS011;28604;51.204;22.552;2023-03-16T08:42:09;10.77;;;4.20;;
42964;SDS011;28604;51.204;22.552;2023-03-16T08:44:43;7.35;;;3.17;;
42964;SDS011;28604;51.204;22.552;2023-03-16T08:47:14;8.88;;;3.63;;
42964;SDS011;28604;51.204;22.552;2023-03-16T08:49:42;7.00;;;3.00;;
42964;SDS011;28604;51.204;22.552;2023-03-16T08:52:12;7.35;;;3.40;;
42964;SDS011;28604;51.204;22.552;2023-03-16T08:54:40;4.78;;;2.50;;
42964;SDS011;28604;51.204;22.552;2023-03-16T08:57:06;6.03;;;2.63;;
42964;SDS011;28604;51.204;22.552;2023-03-16T08:59:33;5.97;;;2.30;;
42964;SDS011;28604;51.204;22.552;2023-03-16T09:01:59;5.32;;;3.00;;
42964;SDS011;28604;51.204;22.552;2023-03-16T09:04:26;6.55;;;3.13;;
42964;SDS011;28604;51.204;22.552;2023-03-16T09:06:52;5.80;;;2.85;;
42964;SDS011;28604;51.204;22.552;2023-03-16T09:09:19;4.65;;;2.22;;
42964;SDS011;28604;51.204;22.552;2023-03-16T09:11:46;6.80;;;2.40;;
42964;SDS011;28604;51.204;22.552;2023-03-16T09:14:14;6.88;;;2.50;;
42964;SDS011;28604;51.204;22.552;2023-03-16T09:16:41;5.85;;;2.65;;
42964;SDS011;28604;51.204;22.552;2023-03-16T09:19:08;6.57;;;3.38;;
42964;SDS011;28604;51.204;22.552;2023-03-16T09:21:36;8.23;;;3.47;;
42964;SDS011;28604;51.204;22.552;2023-03-16T09:24:02;9.23;;;3.50;;
42964;SDS011;28604;51.204;22.552;2023-03-16T09:26:29;7.68;;;2.75;;
42964;SDS011;28604;51.204;22.552;2023-03-16T09:28:55;6.82;;;3.05;;
42964;SDS011;28604;51.204;22.552;2023-03-16T09:31:22;5.03;;;2.92;;
42964;SDS011;28604;51.204;22.552;2023-03-16T09:33:49;6.00;;;3.05;;
42964;SDS011;28604;51.204;22.552;2023-03-16T09:36:15;6.30;;;4.10;;
42964;SDS011;28604;51.204;22.552;2023-03-16T09:38:42;5.68;;;2.03;;
42964;SDS011;28604;51.204;22.552;2023-03-16T09:41:25;4.68;;;2.38;;
42964;SDS011;28604;51.204;22.552;2023-03-16T09:47:01;7.40;;;2.92;;
42964;SDS011;28604;51.204;22.552;2023-03-16T09:49:32;4.78;;;2.92;;
42964;SDS011;28604;51.204;22.552;2023-03-16T09:52:12;8.80;;;3.30;;
42964;SDS011;28604;51.204;22.552;2023-03-16T09:57:38;8.18;;;2.83;;
42964;SDS011;28604;51.204;22.552;2023-03-16T10:05:36;8.60;;;4.00;;
42964;SDS011;28604;51.204;22.552;2023-03-16T10:08:12;6.63;;;2.08;;
42964;SDS011;28604;51.204;22.552;2023-03-16T10:13:38;7.10;;;2.63;;
42964;SDS011;28604;51.204;22.552;2023-03-16T10:16:21;9.05;;;3.33;;
42964;SDS011;28604;51.204;22.552;2023-03-16T10:19:12;7.90;;;2.85;;
42964;SDS011;28604;51.204;22.552;2023-03-16T10:21:47;8.98;;;2.30;;
42964;SDS011;28604;51.204;22.552;2023-03-16T10:27:13;9.10;;;1.85;;
42964;SDS011;28604;51.204;22.552;2023-03-16T10:29:45;6.05;;;2.15;;
42964;SDS011;28604;51.204;22.552;2023-03-16T10:32:13;12.23;;;2.83;;
42964;SDS011;28604;51.204;22.552;2023-03-16T10:34:42;6.63;;;2.50;;
42964;SDS011;28604;51.204;22.552;2023-03-16T10:37:18;2.13;;;1.92;;
42964;SDS011;28604;51.204;22.552;2023-03-16T10:39:47;14.13;;;3.22;;
42964;SDS011;28604;51.204;22.552;2023-03-16T10:42:14;4.55;;;2.47;;
42964;SDS011;28604;51.204;22.552;2023-03-16T10:44:41;4.03;;;2.45;;
42964;SDS011;28604;51.204;22.552;2023-03-16T10:47:14;16.08;;;3.00;;
42964;SDS011;28604;51.204;22.552;2023-03-16T10:49:43;5.05;;;2.25;;
42964;SDS011;28604;51.204;22.552;2023-03-16T10:54:59;10.00;;;3.13;;
42964;SDS011;28604;51.204;22.552;2023-03-16T10:57:34;2.60;;;1.77;;
42964;SDS011;28604;51.204;22.552;2023-03-16T11:02:43;3.72;;;1.33;;
42964;SDS011;28604;51.204;22.552;2023-03-16T11:10:29;4.65;;;2.45;;
42964;SDS011;28604;51.204;22.552;2023-03-16T11:13:02;9.95;;;4.97;;
42964;SDS011;28604;51.204;22.552;2023-03-16T11:15:35;6.78;;;2.53;;
42964;SDS011;28604;51.204;22.552;2023-03-16T11:18:34;5.60;;;2.28;;
42964;SDS011;28604;51.204;22.552;2023-03-16T11:24:17;6.38;;;2.10;;
42964;SDS011;28604;51.204;22.552;2023-03-16T11:26:57;8.68;;;3.20;;
42964;SDS011;28604;51.204;22.552;2023-03-16T11:32:11;3.72;;;2.35;;
42964;SDS011;28604;51.204;22.552;2023-03-16T11:34:40;7.03;;;2.00;;
42964;SDS011;28604;51.204;22.552;2023-03-16T11:37:13;5.35;;;2.17;;
42964;SDS011;28604;51.204;22.552;2023-03-16T11:39:51;4.78;;;1.70;;
42964;SDS011;28604;51.204;22.552;2023-03-16T11:42:50;5.10;;;2.13;;
42964;SDS011;28604;51.204;22.552;2023-03-16T11:45:40;7.15;;;2.30;;
42964;SDS011;28604;51.204;22.552;2023-03-16T11:53:57;6.72;;;2.08;;
42964;SDS011;28604;51.204;22.552;2023-03-16T11:56:47;4.22;;;1.67;;
42964;SDS011;28604;51.204;22.552;2023-03-16T11:59:23;3.75;;;1.40;;
42964;SDS011;28604;51.204;22.552;2023-03-16T12:04:39;2.60;;;1.60;;
42964;SDS011;28604;51.204;22.552;2023-03-16T12:07:31;3.85;;;1.63;;
42964;SDS011;28604;51.204;22.552;2023-03-16T12:10:24;3.33;;;1.52;;
42964;SDS011;28604;51.204;22.552;2023-03-16T12:13:03;2.30;;;1.30;;
42964;SDS011;28604;51.204;22.552;2023-03-16T12:16:08;3.72;;;1.40;;
42964;SDS011;28604;51.204;22.552;2023-03-16T12:18:46;2.78;;;1.30;;
42964;SDS011;28604;51.204;22.552;2023-03-16T12:23:52;3.85;;;1.85;;
42964;SDS011;28604;51.204;22.552;2023-03-16T12:26:22;2.65;;;1.42;;
42964;SDS011;28604;51.204;22.552;2023-03-16T12:28:54;3.15;;;1.23;;
42964;SDS011;28604;51.204;22.552;2023-03-16T12:31:23;5.43;;;1.45;;
42964;SDS011;28604;51.204;22.552;2023-03-16T12:44:42;3.60;;;1.67;;
42964;SDS011;28604;51.204;22.552;2023-03-16T12:50:05;5.10;;;3.00;;
42964;SDS011;28604;51.204;22.552;2023-03-16T12:52:42;7.38;;;2.28;;
42964;SDS011;28604;51.204;22.552;2023-03-16T12:57:42;4.47;;;1.05;;
42964;SDS011;28604;51.204;22.552;2023-03-16T13:00:14;3.67;;;1.25;;
42964;SDS011;28604;51.204;22.552;2023-03-16T13:02:48;5.13;;;0.95;;
42964;SDS011;28604;51.204;22.552;2023-03-16T13:05:17;2.47;;;1.15;;
42964;SDS011;28604;51.204;22.552;2023-03-16T13:08:03;10.15;;;1.70;;
42964;SDS011;28604;51.204;22.552;2023-03-16T13:10:30;4.78;;;1.55;;
42964;SDS011;28604;51.204;22.552;2023-03-16T13:13:06;3.70;;;1.48;;
42964;SDS011;28604;51.204;22.552;2023-03-16T13:15:38;1.90;;;1.13;;
42964;SDS011;28604;51.204;22.552;2023-03-16T13:20:48;7.40;;;2.03;;
42964;SDS011;28604;51.204;22.552;2023-03-16T13:23:19;2.75;;;0.98;;
42964;SDS011;28604;51.204;22.552;2023-03-16T13:28:35;2.50;;;1.10;;
42964;SDS011;28604;51.204;22.552;2023-03-16T13:31:04;3.13;;;1.60;;
42964;SDS011;28604;51.204;22.552;2023-03-16T13:33:43;4.00;;;1.60;;
42964;SDS011;28604;51.204;22.552;2023-03-16T13:36:12;4.60;;;2.10;;
42964;SDS011;28604;51.204;22.552;2023-03-16T13:38:39;3.05;;;1.60;;
42964;SDS011;28604;51.204;22.552;2023-03-16T13:41:10;3.65;;;1.80;;
42964;SDS011;28604;51.204;22.552;2023-03-16T13:46:17;1.85;;;1.10;;
42964;SDS011;28604;51.204;22.552;2023-03-16T13:48:46;3.35;;;1.48;;
42964;SDS011;28604;51.204;22.552;2023-03-16T13:51:19;2.78;;;1.40;;
42964;SDS011;28604;51.204;22.552;2023-03-16T13:53:47;2.47;;;1.63;;
42964;SDS011;28604;51.204;22.552;2023-03-16T13:56:18;3.33;;;1.73;;
42964;SDS011;28604;51.204;22.552;2023-03-16T13:58:48;2.53;;;1.33;;
42964;SDS011;28604;51.204;22.552;2023-03-16T14:01:26;4.68;;;1.65;;
42964;SDS011;28604;51.204;22.552;2023-03-16T14:03:57;5.70;;;1.92;;
42964;SDS011;28604;51.204;22.552;2023-03-16T14:06:31;7.57;;;1.40;;
42964;SDS011;28604;51.204;22.552;2023-03-16T14:09:08;3.08;;;1.60;;
42964;SDS011;28604;51.204;22.552;2023-03-16T14:11:42;4.03;;;1.95;;
42964;SDS011;28604;51.204;22.552;2023-03-16T14:14:12;3.90;;;2.67;;
42964;SDS011;28604;51.204;22.552;2023-03-16T14:16:48;1.77;;;1.48;;
42964;SDS011;28604;51.204;22.552;2023-03-16T14:19:19;3.42;;;2.15;;
42964;SDS011;28604;51.204;22.552;2023-03-16T14:21:49;1.35;;;1.23;;
42964;SDS011;28604;51.204;22.552;2023-03-16T14:24:29;2.53;;;1.63;;
42964;SDS011;28604;51.204;22.552;2023-03-16T14:27:08;4.70;;;2.00;;
42964;SDS011;28604;51.204;22.552;2023-03-16T14:29:42;2.83;;;2.00;;
42964;SDS011;28604;51.204;22.552;2023-03-16T14:32:22;5.43;;;1.70;;
42964;SDS011;28604;51.204;22.552;2023-03-16T14:35:00;5.65;;;2.60;;
42964;SDS011;28604;51.204;22.552;2023-03-16T14:37:47;4.72;;;2.33;;
42964;SDS011;28604;51.204;22.552;2023-03-16T14:40:25;5.35;;;1.88;;
42964;SDS011;28604;51.204;22.552;2023-03-16T14:42:59;4.82;;;2.10;;
42964;SDS011;28604;51.204;22.552;2023-03-16T14:45:32;5.70;;;2.40;;
42964;SDS011;28604;51.204;22.552;2023-03-16T14:48:00;4.22;;;1.85;;
42964;SDS011;28604;51.204;22.552;2023-03-16T14:50:32;4.70;;;1.85;;
42964;SDS011;28604;51.204;22.552;2023-03-16T14:52:59;6.13;;;2.65;;
42964;SDS011;28604;51.204;22.552;2023-03-16T14:55:26;6.13;;;2.58;;
42964;SDS011;28604;51.204;22.552;2023-03-16T14:57:52;7.53;;;2.95;;
42964;SDS011;28604;51.204;22.552;2023-03-16T15:00:19;3.85;;;2.17;;
42964;SDS011;28604;51.204;22.552;2023-03-16T15:02:51;5.60;;;2.33;;
42964;SDS011;28604;51.204;22.552;2023-03-16T15:05:29;6.88;;;2.90;;
42964;SDS011;28604;51.204;22.552;2023-03-16T15:08:00;7.07;;;3.28;;
42964;SDS011;28604;51.204;22.552;2023-03-16T15:10:31;6.28;;;2.90;;
42964;SDS011;28604;51.204;22.552;2023-03-16T15:12:59;7.28;;;2.35;;
42964;SDS011;28604;51.204;22.552;2023-03-16T15:15:31;14.68;;;3.03;;
42964;SDS011;28604;51.204;22.552;2023-03-16T15:17:58;8.45;;;3.33;;
42964;SDS011;28604;51.204;22.552;2023-03-16T15:20:26;6.35;;;2.95;;
42964;SDS011;28604;51.204;22.552;2023-03-16T15:22:56;6.07;;;2.37;;
42964;SDS011;28604;51.204;22.552;2023-03-16T15:25:38;13.40;;;7.15;;
42964;SDS011;28604;51.204;22.552;2023-03-16T15:28:11;9.63;;;3.28;;
42964;SDS011;28604;51.204;22.552;2023-03-16T15:30:43;3.22;;;2.55;;
42964;SDS011;28604;51.204;22.552;2023-03-16T15:33:12;7.90;;;3.28;;
42964;SDS011;28604;51.204;22.552;2023-03-16T15:35:38;6.05;;;2.80;;
42964;SDS011;28604;51.204;22.552;2023-03-16T15:38:06;6.63;;;3.20;;
42964;SDS011;28604;51.204;22.552;2023-03-16T15:40:38;6.53;;;3.20;;
42964;SDS011;28604;51.204;22.552;2023-03-16T15:43:13;6.35;;;3.10;;
42964;SDS011;28604;51.204;22.552;2023-03-16T15:45:41;7.63;;;3.58;;
42964;SDS011;28604;51.204;22.552;2023-03-16T15:48:08;10.57;;;4.18;;
42964;SDS011;28604;51.204;22.552;2023-03-16T15:56:37;7.68;;;3.35;;
42964;SDS011;28604;51.204;22.552;2023-03-16T15:59:10;7.07;;;2.95;;
42964;SDS011;28604;51.204;22.552;2023-03-16T16:01:45;7.70;;;3.50;;
42964;SDS011;28604;51.204;22.552;2023-03-16T16:04:13;8.73;;;2.97;;
42964;SDS011;28604;51.204;22.552;2023-03-16T16:06:42;5.95;;;2.97;;
42964;SDS011;28604;51.204;22.552;2023-03-16T16:09:08;8.23;;;3.83;;
42964;SDS011;28604;51.204;22.552;2023-03-16T16:11:35;8.30;;;4.28;;
42964;SDS011;28604;51.204;22.552;2023-03-16T16:14:01;7.45;;;3.88;;
42964;SDS011;28604;51.204;22.552;2023-03-16T16:16:28;16.30;;;4.32;;